sensor_id;sensor_type;location;lat;lon;timestamp;temperature;humidity
51719;DHT22;37795;53.236;5.704;2023-07-16T00:01:44;17.10;67.40
51719;DHT22;37795;53.236;5.704;2023-07-16T00:04:10;17.00;67.80
51719;DHT22;37795;53.236;5.704;2023-07-16T00:06:35;17.00;68.20
51719;DHT22;37795;53.236;5.704;2023-07-16T00:09:01;17.00;68.20
51719;DHT22;37795;53.236;5.704;2023-07-16T00:11:26;17.00;68.40
51719;DHT22;37795;53.236;5.704;2023-07-16T00:13:52;17.00;68.30
51719;DHT22;37795;53.236;5.704;2023-07-16T00:16:18;17.00;68.30
51719;DHT22;37795;53.236;5.704;2023-07-16T00:18:47;17.00;68.40
51719;DHT22;37795;53.236;5.704;2023-07-16T00:21:13;17.10;68.10
51719;DHT22;37795;53.236;5.704;2023-07-16T00:23:38;17.10;68.30
51719;DHT22;37795;53.236;5.704;2023-07-16T00:26:04;17.00;68.50
51719;DHT22;37795;53.236;5.704;2023-07-16T00:28:30;16.90;68.70
51719;DHT22;37795;53.236;5.704;2023-07-16T00:30:56;17.00;68.80
51719;DHT22;37795;53.236;5.704;2023-07-16T00:33:21;17.00;68.50
51719;DHT22;37795;53.236;5.704;2023-07-16T00:35:48;17.00;68.30
51719;DHT22;37795;53.236;5.704;2023-07-16T00:38:17;17.00;68.20
51719;DHT22;37795;53.236;5.704;2023-07-16T00:40:43;17.00;68.40
51719;DHT22;37795;53.236;5.704;2023-07-16T00:43:10;17.00;68.40
51719;DHT22;37795;53.236;5.704;2023-07-16T00:45:36;17.00;68.40
51719;DHT22;37795;53.236;5.704;2023-07-16T00:48:04;17.00;68.40
51719;DHT22;37795;53.236;5.704;2023-07-16T00:50:30;17.00;68.30
51719;DHT22;37795;53.236;5.704;2023-07-16T00:53:02;17.10;68.00
51719;DHT22;37795;53.236;5.704;2023-07-16T00:55:29;17.10;67.90
51719;DHT22;37795;53.236;5.704;2023-07-16T00:58:01;17.10;68.00
51719;DHT22;37795;53.236;5.704;2023-07-16T01:00:28;17.10;67.90
51719;DHT22;37795;53.236;5.704;2023-07-16T01:02:54;17.10;67.90
51719;DHT22;37795;53.236;5.704;2023-07-16T01:05:21;17.10;68.10
51719;DHT22;37795;53.236;5.704;2023-07-16T01:07:57;17.00;68.40
51719;DHT22;37795;53.236;5.704;2023-07-16T01:10:25;17.00;68.40
51719;DHT22;37795;53.236;5.704;2023-07-16T01:12:53;17.00;68.20
51719;DHT22;37795;53.236;5.704;2023-07-16T01:15:20;17.00;68.10
51719;DHT22;37795;53.236;5.704;2023-07-16T01:17:46;16.90;68.70
51719;DHT22;37795;53.236;5.704;2023-07-16T01:20:11;17.00;68.50
51719;DHT22;37795;53.236;5.704;2023-07-16T01:25:49;17.00;68.00
51719;DHT22;37795;53.236;5.704;2023-07-16T01:30:55;17.10;67.30
51719;DHT22;37795;53.236;5.704;2023-07-16T01:33:22;17.10;67.30
51719;DHT22;37795;53.236;5.704;2023-07-16T01:35:50;17.20;67.50
51719;DHT22;37795;53.236;5.704;2023-07-16T01:38:17;17.10;67.40
51719;DHT22;37795;53.236;5.704;2023-07-16T01:40:44;17.20;67.50
51719;DHT22;37795;53.236;5.704;2023-07-16T01:43:10;17.10;67.70
51719;DHT22;37795;53.236;5.704;2023-07-16T01:45:35;17.20;67.70
51719;DHT22;37795;53.236;5.704;2023-07-16T01:48:41;17.20;67.40
51719;DHT22;37795;53.236;5.704;2023-07-16T01:51:06;17.30;66.80
51719;DHT22;37795;53.236;5.704;2023-07-16T01:53:32;17.40;66.70
51719;DHT22;37795;53.236;5.704;2023-07-16T01:55:58;17.40;66.50
51719;DHT22;37795;53.236;5.704;2023-07-16T01:58:24;17.40;66.50
51719;DHT22;37795;53.236;5.704;2023-07-16T02:00:50;17.40;66.70
51719;DHT22;37795;53.236;5.704;2023-07-16T02:03:16;17.30;67.30
51719;DHT22;37795;53.236;5.704;2023-07-16T02:05:41;17.30;67.70
51719;DHT22;37795;53.236;5.704;2023-07-16T02:08:07;17.30;67.80
51719;DHT22;37795;53.236;5.704;2023-07-16T02:10:33;17.30;67.90
51719;DHT22;37795;53.236;5.704;2023-07-16T02:12:58;17.30;67.90
51719;DHT22;37795;53.236;5.704;2023-07-16T02:15:24;17.40;67.80
51719;DHT22;37795;53.236;5.704;2023-07-16T02:17:50;17.30;68.00
51719;DHT22;37795;53.236;5.704;2023-07-16T02:20:16;17.30;67.80
51719;DHT22;37795;53.236;5.704;2023-07-16T02:22:41;17.20;67.80
51719;DHT22;37795;53.236;5.704;2023-07-16T02:25:07;17.20;68.10
51719;DHT22;37795;53.236;5.704;2023-07-16T02:27:33;17.30;67.40
51719;DHT22;37795;53.236;5.704;2023-07-16T02:29:59;17.20;67.60
51719;DHT22;37795;53.236;5.704;2023-07-16T02:32:24;17.30;67.10
51719;DHT22;37795;53.236;5.704;2023-07-16T02:34:50;17.30;67.10
51719;DHT22;37795;53.236;5.704;2023-07-16T02:37:16;17.30;67.20
51719;DHT22;37795;53.236;5.704;2023-07-16T02:39:44;17.30;67.50
51719;DHT22;37795;53.236;5.704;2023-07-16T02:42:10;17.20;67.80
51719;DHT22;37795;53.236;5.704;2023-07-16T02:44:36;17.20;68.00
51719;DHT22;37795;53.236;5.704;2023-07-16T02:47:07;17.00;68.60
51719;DHT22;37795;53.236;5.704;2023-07-16T02:49:33;16.90;69.30
51719;DHT22;37795;53.236;5.704;2023-07-16T02:51:58;17.00;69.30
51719;DHT22;37795;53.236;5.704;2023-07-16T02:54:24;16.90;70.00
51719;DHT22;37795;53.236;5.704;2023-07-16T02:56:50;16.90;70.10
51719;DHT22;37795;53.236;5.704;2023-07-16T02:59:16;16.90;70.00
51719;DHT22;37795;53.236;5.704;2023-07-16T03:01:41;16.90;70.10
51719;DHT22;37795;53.236;5.704;2023-07-16T03:04:07;16.90;69.60
51719;DHT22;37795;53.236;5.704;2023-07-16T03:06:32;16.90;69.60
51719;DHT22;37795;53.236;5.704;2023-07-16T03:08:58;17.00;69.20
51719;DHT22;37795;53.236;5.704;2023-07-16T03:11:24;17.00;69.70
51719;DHT22;37795;53.236;5.704;2023-07-16T03:13:49;16.90;70.80
51719;DHT22;37795;53.236;5.704;2023-07-16T03:16:15;16.80;71.10
51719;DHT22;37795;53.236;5.704;2023-07-16T03:18:41;16.80;71.40
51719;DHT22;37795;53.236;5.704;2023-07-16T03:21:07;16.80;71.40
51719;DHT22;37795;53.236;5.704;2023-07-16T03:23:32;16.80;71.40
51719;DHT22;37795;53.236;5.704;2023-07-16T03:25:58;16.80;71.70
51719;DHT22;37795;53.236;5.704;2023-07-16T03:28:24;16.80;71.50
51719;DHT22;37795;53.236;5.704;2023-07-16T03:30:50;16.80;71.90
51719;DHT22;37795;53.236;5.704;2023-07-16T03:33:17;16.80;71.90
51719;DHT22;37795;53.236;5.704;2023-07-16T03:35:44;16.70;72.20
51719;DHT22;37795;53.236;5.704;2023-07-16T03:38:13;16.80;72.10
51719;DHT22;37795;53.236;5.704;2023-07-16T03:40:39;16.80;72.00
51719;DHT22;37795;53.236;5.704;2023-07-16T03:43:05;16.90;72.10
51719;DHT22;37795;53.236;5.704;2023-07-16T03:45:31;16.80;72.20
51719;DHT22;37795;53.236;5.704;2023-07-16T03:47:56;16.90;72.10
51719;DHT22;37795;53.236;5.704;2023-07-16T03:50:22;16.80;72.30
51719;DHT22;37795;53.236;5.704;2023-07-16T03:52:48;16.90;71.90
51719;DHT22;37795;53.236;5.704;2023-07-16T03:55:14;16.80;72.20
51719;DHT22;37795;53.236;5.704;2023-07-16T03:57:40;16.80;72.30
51719;DHT22;37795;53.236;5.704;2023-07-16T04:00:06;16.70;72.60
51719;DHT22;37795;53.236;5.704;2023-07-16T04:02:33;16.70;72.50
51719;DHT22;37795;53.236;5.704;2023-07-16T04:04:59;16.60;72.90
51719;DHT22;37795;53.236;5.704;2023-07-16T04:07:24;16.70;72.30
51719;DHT22;37795;53.236;5.704;2023-07-16T04:09:51;16.70;72.30
51719;DHT22;37795;53.236;5.704;2023-07-16T04:12:17;16.80;71.80
51719;DHT22;37795;53.236;5.704;2023-07-16T04:14:42;16.80;71.80
51719;DHT22;37795;53.236;5.704;2023-07-16T04:17:08;16.80;71.70
51719;DHT22;37795;53.236;5.704;2023-07-16T04:19:34;16.80;72.00
51719;DHT22;37795;53.236;5.704;2023-07-16T04:22:00;16.80;72.00
51719;DHT22;37795;53.236;5.704;2023-07-16T04:24:25;16.90;72.00
51719;DHT22;37795;53.236;5.704;2023-07-16T04:26:53;16.90;71.90
51719;DHT22;37795;53.236;5.704;2023-07-16T04:29:19;17.00;72.20
51719;DHT22;37795;53.236;5.704;2023-07-16T04:31:45;17.00;72.30
51719;DHT22;37795;53.236;5.704;2023-07-16T04:34:10;16.90;71.90
51719;DHT22;37795;53.236;5.704;2023-07-16T04:36:36;16.90;71.90
51719;DHT22;37795;53.236;5.704;2023-07-16T04:39:02;16.90;72.20
51719;DHT22;37795;53.236;5.704;2023-07-16T04:41:28;16.80;74.40
51719;DHT22;37795;53.236;5.704;2023-07-16T04:43:53;16.60;77.10
51719;DHT22;37795;53.236;5.704;2023-07-16T04:46:19;16.10;80.50
51719;DHT22;37795;53.236;5.704;2023-07-16T04:48:45;15.90;81.80
51719;DHT22;37795;53.236;5.704;2023-07-16T04:51:10;15.90;81.60
51719;DHT22;37795;53.236;5.704;2023-07-16T04:53:36;16.00;81.00
51719;DHT22;37795;53.236;5.704;2023-07-16T04:56:02;16.00;80.50
51719;DHT22;37795;53.236;5.704;2023-07-16T04:58:27;16.10;79.50
51719;DHT22;37795;53.236;5.704;2023-07-16T05:00:53;16.20;79.70
51719;DHT22;37795;53.236;5.704;2023-07-16T05:03:19;16.20;79.00
51719;DHT22;37795;53.236;5.704;2023-07-16T05:05:44;16.40;78.40
51719;DHT22;37795;53.236;5.704;2023-07-16T05:08:10;16.50;77.50
51719;DHT22;37795;53.236;5.704;2023-07-16T05:10:36;16.50;77.30
51719;DHT22;37795;53.236;5.704;2023-07-16T05:13:01;16.50;77.50
51719;DHT22;37795;53.236;5.704;2023-07-16T05:15:31;16.60;77.40
51719;DHT22;37795;53.236;5.704;2023-07-16T05:17:57;16.60;77.10
51719;DHT22;37795;53.236;5.704;2023-07-16T05:20:23;16.50;77.10
51719;DHT22;37795;53.236;5.704;2023-07-16T05:22:49;16.60;77.20
51719;DHT22;37795;53.236;5.704;2023-07-16T05:25:15;16.60;77.10
51719;DHT22;37795;53.236;5.704;2023-07-16T05:27:40;16.50;77.00
51719;DHT22;37795;53.236;5.704;2023-07-16T05:30:06;16.40;78.20
51719;DHT22;37795;53.236;5.704;2023-07-16T05:32:32;16.40;79.00
51719;DHT22;37795;53.236;5.704;2023-07-16T05:34:58;16.20;79.40
51719;DHT22;37795;53.236;5.704;2023-07-16T05:37:23;16.30;79.90
51719;DHT22;37795;53.236;5.704;2023-07-16T05:39:49;16.30;79.90
51719;DHT22;37795;53.236;5.704;2023-07-16T05:42:15;16.30;80.00
51719;DHT22;37795;53.236;5.704;2023-07-16T05:44:40;16.40;79.90
51719;DHT22;37795;53.236;5.704;2023-07-16T05:47:07;16.40;79.50
51719;DHT22;37795;53.236;5.704;2023-07-16T05:49:34;16.50;79.30
51719;DHT22;37795;53.236;5.704;2023-07-16T05:52:00;16.60;78.80
51719;DHT22;37795;53.236;5.704;2023-07-16T05:54:26;16.60;78.40
51719;DHT22;37795;53.236;5.704;2023-07-16T05:56:51;16.60;78.70
51719;DHT22;37795;53.236;5.704;2023-07-16T05:59:17;16.70;78.80
51719;DHT22;37795;53.236;5.704;2023-07-16T06:01:43;16.60;78.50
51719;DHT22;37795;53.236;5.704;2023-07-16T06:04:09;16.70;78.30
51719;DHT22;37795;53.236;5.704;2023-07-16T06:06:34;16.80;77.70
51719;DHT22;37795;53.236;5.704;2023-07-16T06:09:00;16.60;77.80
51719;DHT22;37795;53.236;5.704;2023-07-16T06:11:26;16.70;78.00
51719;DHT22;37795;53.236;5.704;2023-07-16T06:13:54;16.70;77.60
51719;DHT22;37795;53.236;5.704;2023-07-16T06:16:20;16.60;78.70
51719;DHT22;37795;53.236;5.704;2023-07-16T06:18:46;16.80;78.40
51719;DHT22;37795;53.236;5.704;2023-07-16T06:21:12;16.90;77.50
51719;DHT22;37795;53.236;5.704;2023-07-16T06:23:38;17.00;78.20
51719;DHT22;37795;53.236;5.704;2023-07-16T06:26:04;16.90;78.50
51719;DHT22;37795;53.236;5.704;2023-07-16T06:28:30;16.80;80.70
51719;DHT22;37795;53.236;5.704;2023-07-16T06:30:56;16.40;82.70
51719;DHT22;37795;53.236;5.704;2023-07-16T06:33:21;16.10;83.10
51719;DHT22;37795;53.236;5.704;2023-07-16T06:35:47;16.20;83.30
51719;DHT22;37795;53.236;5.704;2023-07-16T06:38:14;16.30;83.60
51719;DHT22;37795;53.236;5.704;2023-07-16T06:40:46;16.20;83.50
51719;DHT22;37795;53.236;5.704;2023-07-16T06:43:12;16.00;84.70
51719;DHT22;37795;53.236;5.704;2023-07-16T06:45:38;15.90;84.90
51719;DHT22;37795;53.236;5.704;2023-07-16T06:55:14;16.40;84.90
51719;DHT22;37795;53.236;5.704;2023-07-16T06:57:39;16.20;84.30
51719;DHT22;37795;53.236;5.704;2023-07-16T07:00:06;16.30;83.80
51719;DHT22;37795;53.236;5.704;2023-07-16T07:02:36;16.30;83.40
51719;DHT22;37795;53.236;5.704;2023-07-16T07:05:02;16.60;82.90
51719;DHT22;37795;53.236;5.704;2023-07-16T07:07:28;16.80;82.50
51719;DHT22;37795;53.236;5.704;2023-07-16T07:09:53;17.00;82.70
51719;DHT22;37795;53.236;5.704;2023-07-16T07:12:19;17.30;82.20
51719;DHT22;37795;53.236;5.704;2023-07-16T07:14:47;17.20;81.00
51719;DHT22;37795;53.236;5.704;2023-07-16T07:17:13;17.10;80.70
51719;DHT22;37795;53.236;5.704;2023-07-16T07:19:41;17.00;79.80
51719;DHT22;37795;53.236;5.704;2023-07-16T07:22:06;16.90;79.80
51719;DHT22;37795;53.236;5.704;2023-07-16T07:24:32;16.90;80.00
51719;DHT22;37795;53.236;5.704;2023-07-16T07:26:58;17.20;79.70
51719;DHT22;37795;53.236;5.704;2023-07-16T07:29:24;17.50;78.30
51719;DHT22;37795;53.236;5.704;2023-07-16T07:31:50;17.60;76.90
51719;DHT22;37795;53.236;5.704;2023-07-16T07:34:16;17.80;78.10
51719;DHT22;37795;53.236;5.704;2023-07-16T07:36:41;17.90;76.50
51719;DHT22;37795;53.236;5.704;2023-07-16T07:39:07;18.10;76.00
51719;DHT22;37795;53.236;5.704;2023-07-16T07:41:33;18.10;75.10
51719;DHT22;37795;53.236;5.704;2023-07-16T07:43:59;18.00;74.00
51719;DHT22;37795;53.236;5.704;2023-07-16T07:46:24;17.80;75.10
51719;DHT22;37795;53.236;5.704;2023-07-16T07:48:50;17.60;75.50
51719;DHT22;37795;53.236;5.704;2023-07-16T07:51:16;17.30;76.10
51719;DHT22;37795;53.236;5.704;2023-07-16T07:53:42;17.50;75.80
51719;DHT22;37795;53.236;5.704;2023-07-16T07:56:07;17.80;75.40
51719;DHT22;37795;53.236;5.704;2023-07-16T07:58:33;18.00;75.60
51719;DHT22;37795;53.236;5.704;2023-07-16T08:01:06;18.10;75.80
51719;DHT22;37795;53.236;5.704;2023-07-16T08:03:31;18.20;74.80
51719;DHT22;37795;53.236;5.704;2023-07-16T08:05:57;18.30;74.60
51719;DHT22;37795;53.236;5.704;2023-07-16T08:08:23;18.20;74.00
51719;DHT22;37795;53.236;5.704;2023-07-16T08:10:48;18.10;73.90
51719;DHT22;37795;53.236;5.704;2023-07-16T08:13:14;18.20;73.70
51719;DHT22;37795;53.236;5.704;2023-07-16T08:15:40;18.50;73.90
51719;DHT22;37795;53.236;5.704;2023-07-16T08:18:05;18.50;72.30
51719;DHT22;37795;53.236;5.704;2023-07-16T08:20:32;18.60;72.80
51719;DHT22;37795;53.236;5.704;2023-07-16T08:22:57;18.40;72.90
51719;DHT22;37795;53.236;5.704;2023-07-16T08:25:23;18.50;72.90
51719;DHT22;37795;53.236;5.704;2023-07-16T08:27:49;18.60;72.30
51719;DHT22;37795;53.236;5.704;2023-07-16T08:30:15;18.70;72.20
51719;DHT22;37795;53.236;5.704;2023-07-16T08:32:41;18.90;71.60
51719;DHT22;37795;53.236;5.704;2023-07-16T08:35:07;18.80;71.30
51719;DHT22;37795;53.236;5.704;2023-07-16T08:37:33;19.00;72.40
51719;DHT22;37795;53.236;5.704;2023-07-16T08:39:58;19.00;71.70
51719;DHT22;37795;53.236;5.704;2023-07-16T08:42:24;19.00;72.00
51719;DHT22;37795;53.236;5.704;2023-07-16T08:44:50;19.00;71.50
51719;DHT22;37795;53.236;5.704;2023-07-16T08:47:16;19.00;71.00
51719;DHT22;37795;53.236;5.704;2023-07-16T08:49:54;18.90;71.40
51719;DHT22;37795;53.236;5.704;2023-07-16T08:52:21;19.20;69.60
51719;DHT22;37795;53.236;5.704;2023-07-16T08:54:47;19.40;68.60
51719;DHT22;37795;53.236;5.704;2023-07-16T08:57:14;19.60;69.10
51719;DHT22;37795;53.236;5.704;2023-07-16T08:59:40;19.60;68.70
51719;DHT22;37795;53.236;5.704;2023-07-16T09:02:06;19.70;67.00
51719;DHT22;37795;53.236;5.704;2023-07-16T09:04:32;19.90;65.40
51719;DHT22;37795;53.236;5.704;2023-07-16T09:06:58;20.20;64.90
51719;DHT22;37795;53.236;5.704;2023-07-16T09:09:24;20.40;63.40
51719;DHT22;37795;53.236;5.704;2023-07-16T09:11:50;20.20;62.00
51719;DHT22;37795;53.236;5.704;2023-07-16T09:14:19;19.80;63.00
51719;DHT22;37795;53.236;5.704;2023-07-16T09:16:49;19.50;66.50
51719;DHT22;37795;53.236;5.704;2023-07-16T09:19:15;19.40;67.80
51719;DHT22;37795;53.236;5.704;2023-07-16T09:21:46;19.50;68.40
51719;DHT22;37795;53.236;5.704;2023-07-16T09:24:12;19.50;67.80
51719;DHT22;37795;53.236;5.704;2023-07-16T09:26:38;19.30;68.80
51719;DHT22;37795;53.236;5.704;2023-07-16T09:29:07;18.70;69.00
51719;DHT22;37795;53.236;5.704;2023-07-16T09:31:33;18.30;71.80
51719;DHT22;37795;53.236;5.704;2023-07-16T09:33:59;18.30;73.50
51719;DHT22;37795;53.236;5.704;2023-07-16T09:36:25;18.20;73.80
51719;DHT22;37795;53.236;5.704;2023-07-16T09:38:55;18.30;73.30
51719;DHT22;37795;53.236;5.704;2023-07-16T09:41:23;18.30;71.60
51719;DHT22;37795;53.236;5.704;2023-07-16T09:43:49;18.40;71.60
51719;DHT22;37795;53.236;5.704;2023-07-16T09:46:14;18.40;71.50
51719;DHT22;37795;53.236;5.704;2023-07-16T09:48:40;18.60;70.60
51719;DHT22;37795;53.236;5.704;2023-07-16T09:51:07;18.60;71.90
51719;DHT22;37795;53.236;5.704;2023-07-16T09:53:36;18.40;70.70
51719;DHT22;37795;53.236;5.704;2023-07-16T09:56:03;18.40;69.70
51719;DHT22;37795;53.236;5.704;2023-07-16T09:58:30;18.60;69.40
51719;DHT22;37795;53.236;5.704;2023-07-16T10:00:56;18.90;67.90
51719;DHT22;37795;53.236;5.704;2023-07-16T10:03:22;19.30;66.80
51719;DHT22;37795;53.236;5.704;2023-07-16T10:05:48;19.30;62.70
51719;DHT22;37795;53.236;5.704;2023-07-16T10:08:19;19.80;63.30
51719;DHT22;37795;53.236;5.704;2023-07-16T10:10:58;19.90;63.10
51719;DHT22;37795;53.236;5.704;2023-07-16T10:13:24;20.00;61.90
51719;DHT22;37795;53.236;5.704;2023-07-16T10:15:55;20.00;61.40
51719;DHT22;37795;53.236;5.704;2023-07-16T10:18:31;20.10;63.20
51719;DHT22;37795;53.236;5.704;2023-07-16T10:21:06;19.80;65.80
51719;DHT22;37795;53.236;5.704;2023-07-16T10:23:42;20.40;65.60
51719;DHT22;37795;53.236;5.704;2023-07-16T10:26:13;20.50;62.30
51719;DHT22;37795;53.236;5.704;2023-07-16T10:28:39;20.50;62.60
51719;DHT22;37795;53.236;5.704;2023-07-16T10:31:05;21.00;63.60
51719;DHT22;37795;53.236;5.704;2023-07-16T10:33:36;21.00;62.60
51719;DHT22;37795;53.236;5.704;2023-07-16T10:36:04;21.10;62.30
51719;DHT22;37795;53.236;5.704;2023-07-16T10:38:29;20.50;62.90
51719;DHT22;37795;53.236;5.704;2023-07-16T10:40:55;20.40;62.00
51719;DHT22;37795;53.236;5.704;2023-07-16T10:43:21;19.90;62.90
51719;DHT22;37795;53.236;5.704;2023-07-16T10:45:50;19.90;63.40
51719;DHT22;37795;53.236;5.704;2023-07-16T10:55:14;20.40;63.10
51719;DHT22;37795;53.236;5.704;2023-07-16T10:57:39;19.90;63.20
51719;DHT22;37795;53.236;5.704;2023-07-16T11:00:10;20.10;62.60
51719;DHT22;37795;53.236;5.704;2023-07-16T11:02:39;20.50;61.50
51719;DHT22;37795;53.236;5.704;2023-07-16T11:05:12;20.60;58.90
51719;DHT22;37795;53.236;5.704;2023-07-16T11:07:43;20.10;59.90
51719;DHT22;37795;53.236;5.704;2023-07-16T11:10:09;20.10;59.60
51719;DHT22;37795;53.236;5.704;2023-07-16T11:12:34;20.60;60.90
51719;DHT22;37795;53.236;5.704;2023-07-16T11:15:00;21.00;59.60
51719;DHT22;37795;53.236;5.704;2023-07-16T11:17:26;21.20;58.80
51719;DHT22;37795;53.236;5.704;2023-07-16T11:19:53;21.30;56.80
51719;DHT22;37795;53.236;5.704;2023-07-16T11:22:19;20.90;57.70
51719;DHT22;37795;53.236;5.704;2023-07-16T11:24:49;21.30;56.50
51719;DHT22;37795;53.236;5.704;2023-07-16T11:27:19;21.50;54.30
51719;DHT22;37795;53.236;5.704;2023-07-16T11:29:46;21.10;55.90
51719;DHT22;37795;53.236;5.704;2023-07-16T11:32:14;21.20;54.70
51719;DHT22;37795;53.236;5.704;2023-07-16T11:34:52;21.30;55.70
51719;DHT22;37795;53.236;5.704;2023-07-16T11:37:18;21.00;55.80
51719;DHT22;37795;53.236;5.704;2023-07-16T11:39:44;21.20;56.10
51719;DHT22;37795;53.236;5.704;2023-07-16T11:42:10;20.80;54.60
51719;DHT22;37795;53.236;5.704;2023-07-16T11:44:36;20.60;56.40
51719;DHT22;37795;53.236;5.704;2023-07-16T11:47:03;20.40;55.70
51719;DHT22;37795;53.236;5.704;2023-07-16T11:49:29;20.20;56.60
51719;DHT22;37795;53.236;5.704;2023-07-16T11:51:56;20.40;57.80
51719;DHT22;37795;53.236;5.704;2023-07-16T11:54:22;20.40;57.20
51719;DHT22;37795;53.236;5.704;2023-07-16T11:56:48;20.10;57.10
51719;DHT22;37795;53.236;5.704;2023-07-16T11:59:15;20.00;58.30
51719;DHT22;37795;53.236;5.704;2023-07-16T12:01:42;20.10;59.00
51719;DHT22;37795;53.236;5.704;2023-07-16T12:04:07;20.00;59.80
51719;DHT22;37795;53.236;5.704;2023-07-16T12:06:33;20.00;60.30
51719;DHT22;37795;53.236;5.704;2023-07-16T12:08:59;19.70;60.90
51719;DHT22;37795;53.236;5.704;2023-07-16T12:11:24;19.70;61.90
51719;DHT22;37795;53.236;5.704;2023-07-16T12:13:50;19.30;62.60
51719;DHT22;37795;53.236;5.704;2023-07-16T12:16:16;19.10;62.60
51719;DHT22;37795;53.236;5.704;2023-07-16T12:18:42;18.90;62.70
51719;DHT22;37795;53.236;5.704;2023-07-16T12:21:07;18.00;64.60
51719;DHT22;37795;53.236;5.704;2023-07-16T12:23:33;17.90;67.00
51719;DHT22;37795;53.236;5.704;2023-07-16T12:25:59;17.80;68.10
51719;DHT22;37795;53.236;5.704;2023-07-16T12:28:24;18.20;68.60
51719;DHT22;37795;53.236;5.704;2023-07-16T12:30:50;18.90;65.80
51719;DHT22;37795;53.236;5.704;2023-07-16T12:33:16;19.00;64.80
51719;DHT22;37795;53.236;5.704;2023-07-16T12:35:41;19.30;63.80
51719;DHT22;37795;53.236;5.704;2023-07-16T12:38:07;19.50;62.60
51719;DHT22;37795;53.236;5.704;2023-07-16T12:40:33;19.80;61.00
51719;DHT22;37795;53.236;5.704;2023-07-16T12:43:05;20.20;60.30
51719;DHT22;37795;53.236;5.704;2023-07-16T12:45:31;19.90;59.70
51719;DHT22;37795;53.236;5.704;2023-07-16T12:47:56;19.70;60.90
51719;DHT22;37795;53.236;5.704;2023-07-16T12:50:23;19.80;61.90
51719;DHT22;37795;53.236;5.704;2023-07-16T12:52:49;19.50;61.80
51719;DHT22;37795;53.236;5.704;2023-07-16T12:55:14;19.60;62.20
51719;DHT22;37795;53.236;5.704;2023-07-16T12:57:40;19.40;62.70
51719;DHT22;37795;53.236;5.704;2023-07-16T13:00:06;19.40;62.00
51719;DHT22;37795;53.236;5.704;2023-07-16T13:02:35;19.10;63.10
51719;DHT22;37795;53.236;5.704;2023-07-16T13:05:01;19.10;62.00
51719;DHT22;37795;53.236;5.704;2023-07-16T13:07:26;18.60;65.20
51719;DHT22;37795;53.236;5.704;2023-07-16T13:09:52;18.30;66.20
51719;DHT22;37795;53.236;5.704;2023-07-16T13:12:18;18.20;67.10
51719;DHT22;37795;53.236;5.704;2023-07-16T13:14:44;17.90;67.30
51719;DHT22;37795;53.236;5.704;2023-07-16T13:17:09;18.30;66.50
51719;DHT22;37795;53.236;5.704;2023-07-16T13:19:35;18.00;65.50
51719;DHT22;37795;53.236;5.704;2023-07-16T13:22:01;18.10;63.90
51719;DHT22;37795;53.236;5.704;2023-07-16T13:24:27;18.20;63.20
51719;DHT22;37795;53.236;5.704;2023-07-16T13:26:53;18.40;62.30
51719;DHT22;37795;53.236;5.704;2023-07-16T13:29:18;18.60;62.30
51719;DHT22;37795;53.236;5.704;2023-07-16T13:31:44;18.90;61.90
51719;DHT22;37795;53.236;5.704;2023-07-16T13:34:10;18.90;61.80
51719;DHT22;37795;53.236;5.704;2023-07-16T13:36:35;19.10;62.50
51719;DHT22;37795;53.236;5.704;2023-07-16T13:39:01;19.30;62.50
51719;DHT22;37795;53.236;5.704;2023-07-16T13:41:28;19.20;63.40
51719;DHT22;37795;53.236;5.704;2023-07-16T13:43:53;19.70;62.10
51719;DHT22;37795;53.236;5.704;2023-07-16T13:46:19;20.10;61.00
51719;DHT22;37795;53.236;5.704;2023-07-16T13:48:45;20.40;60.90
51719;DHT22;37795;53.236;5.704;2023-07-16T13:51:11;20.50;60.50
51719;DHT22;37795;53.236;5.704;2023-07-16T13:53:36;20.40;61.40
51719;DHT22;37795;53.236;5.704;2023-07-16T13:56:02;20.60;59.20
51719;DHT22;37795;53.236;5.704;2023-07-16T13:58:28;21.00;59.20
51719;DHT22;37795;53.236;5.704;2023-07-16T14:00:54;21.30;56.60
51719;DHT22;37795;53.236;5.704;2023-07-16T14:03:19;21.40;56.80
51719;DHT22;37795;53.236;5.704;2023-07-16T14:05:45;21.40;57.80
51719;DHT22;37795;53.236;5.704;2023-07-16T14:08:11;21.40;57.70
51719;DHT22;37795;53.236;5.704;2023-07-16T14:10:36;21.00;54.90
51719;DHT22;37795;53.236;5.704;2023-07-16T14:13:02;20.90;55.60
51719;DHT22;37795;53.236;5.704;2023-07-16T14:15:28;20.90;56.90
51719;DHT22;37795;53.236;5.704;2023-07-16T14:17:54;21.60;57.70
51719;DHT22;37795;53.236;5.704;2023-07-16T14:20:19;21.10;55.40
51719;DHT22;37795;53.236;5.704;2023-07-16T14:22:45;21.40;56.10
51719;DHT22;37795;53.236;5.704;2023-07-16T14:25:10;21.60;56.00
51719;DHT22;37795;53.236;5.704;2023-07-16T14:27:36;20.90;54.50
51719;DHT22;37795;53.236;5.704;2023-07-16T14:30:02;20.80;55.50
51719;DHT22;37795;53.236;5.704;2023-07-16T14:32:28;20.60;56.20
51719;DHT22;37795;53.236;5.704;2023-07-16T14:34:57;20.60;56.50
51719;DHT22;37795;53.236;5.704;2023-07-16T14:37:22;20.30;56.70
51719;DHT22;37795;53.236;5.704;2023-07-16T14:39:48;20.20;57.50
51719;DHT22;37795;53.236;5.704;2023-07-16T14:42:14;20.10;57.20
51719;DHT22;37795;53.236;5.704;2023-07-16T14:44:39;20.30;58.40
51719;DHT22;37795;53.236;5.704;2023-07-16T14:47:05;20.20;57.80
51719;DHT22;37795;53.236;5.704;2023-07-16T14:49:31;20.20;57.20
51719;DHT22;37795;53.236;5.704;2023-07-16T14:51:57;20.10;57.90
51719;DHT22;37795;53.236;5.704;2023-07-16T14:54:23;20.10;58.10
51719;DHT22;37795;53.236;5.704;2023-07-16T14:56:49;19.90;57.60
51719;DHT22;37795;53.236;5.704;2023-07-16T14:59:14;20.00;58.00
51719;DHT22;37795;53.236;5.704;2023-07-16T15:01:40;20.00;57.60
51719;DHT22;37795;53.236;5.704;2023-07-16T15:04:06;19.80;58.30
51719;DHT22;37795;53.236;5.704;2023-07-16T15:06:31;19.90;58.60
51719;DHT22;37795;53.236;5.704;2023-07-16T15:08:57;20.40;58.30
51719;DHT22;37795;53.236;5.704;2023-07-16T15:11:23;20.80;56.70
51719;DHT22;37795;53.236;5.704;2023-07-16T15:13:48;20.80;58.10
51719;DHT22;37795;53.236;5.704;2023-07-16T15:16:14;20.40;56.30
51719;DHT22;37795;53.236;5.704;2023-07-16T15:18:40;20.20;56.50
51719;DHT22;37795;53.236;5.704;2023-07-16T15:21:06;20.10;56.60
51719;DHT22;37795;53.236;5.704;2023-07-16T15:23:32;20.10;57.20
51719;DHT22;37795;53.236;5.704;2023-07-16T15:26:05;19.80;56.80
51719;DHT22;37795;53.236;5.704;2023-07-16T15:28:32;20.30;58.20
51719;DHT22;37795;53.236;5.704;2023-07-16T15:31:00;20.30;57.30
51719;DHT22;37795;53.236;5.704;2023-07-16T15:33:26;20.00;57.00
51719;DHT22;37795;53.236;5.704;2023-07-16T15:35:52;19.90;58.20
51719;DHT22;37795;53.236;5.704;2023-07-16T15:38:18;19.80;56.90
51719;DHT22;37795;53.236;5.704;2023-07-16T15:40:43;19.80;58.20
51719;DHT22;37795;53.236;5.704;2023-07-16T15:43:09;19.80;57.40
51719;DHT22;37795;53.236;5.704;2023-07-16T15:45:35;19.90;58.20